Time;durP1;ratioP1;P1;durP2;ratioP2;P2;SDS_P1;SDS_P2;PMS_P1;PMS_P2;Temp;Humidity;BMP_temperature;BMP_pressure;BME280_temperature;BME280_humidity;BME280_pressure;Samples;Min_cycle;Max_cycle;Signal;HPM_P1;HPM_P2
2023/10/10 00:02:19;;;;;;;11.88;3.10;;;;;;;14.61;58.25;64496.25;5072939;28;20671;-53
2023/10/10 00:04:49;;;;;;;6.63;2.72;;;;;;;14.80;59.11;64514.06;5072773;28;20201;-54
2023/10/10 00:07:16;;;;;;;5.82;3.35;;;;;;;14.88;58.86;64523.41;5072941;28;20211;-53
2023/10/10 00:09:46;;;;;;;10.30;3.72;;;;;;;14.63;59.37;64498.47;5072861;28;20687;-54
2023/10/10 00:12:17;;;;;;;6.80;3.75;;;;;;;14.83;58.39;64517.91;5072959;28;20211;-53
2023/10/10 00:14:44;;;;;;;8.57;4.15;;;;;;;14.44;59.11;64477.03;5071621;28;20195;-54
2023/10/10 00:17:10;;;;;;;8.60;3.55;;;;;;;14.33;59.47;64465.50;5072777;28;20635;-59
2023/10/10 00:19:45;;;;;;;7.22;2.90;;;;;;;14.82;59.81;64516.25;5071669;28;20709;-55
2023/10/10 00:22:12;;;;;;;7.25;4.25;;;;;;;14.67;59.59;64497.22;5072669;28;20257;-54
2023/10/10 00:24:38;;;;;;;6.47;3.78;;;;;;;14.72;59.83;64507.81;5072730;28;20193;-54
2023/10/10 00:27:13;;;;;;;8.05;3.88;;;;;;;14.72;59.91;64508.34;5071267;28;20219;-55
2023/10/10 00:29:44;;;;;;;9.57;4.40;;;;;;;14.84;59.66;64518.44;5072700;28;20200;-55
2023/10/10 00:32:24;;;;;;;8.35;4.55;;;;;;;14.67;59.99;64497.78;5072467;28;20762;-55
2023/10/10 00:34:50;;;;;;;8.95;4.60;;;;;;;14.64;59.43;64496.47;5071169;28;20204;-55
2023/10/10 00:37:22;;;;;;;10.05;4.20;;;;;;;14.39;60.59;64469.00;5072451;28;20208;-55
2023/10/10 00:39:54;;;;;;;10.40;4.45;;;;;;;14.38;59.94;64468.47;5055175;28;20200;-54
2023/10/10 00:42:21;;;;;;;9.18;4.05;;;;;;;14.39;60.56;64469.53;5072392;28;20208;-55
2023/10/10 00:44:48;;;;;;;8.43;4.35;;;;;;;14.52;60.32;64486.38;5054303;28;20291;-58
2023/10/10 00:47:26;;;;;;;12.65;3.97;;;;;;;14.31;60.98;64460.75;5071040;28;20232;-56
2023/10/10 00:49:53;;;;;;;8.93;4.18;;;;;;;14.26;60.49;64458.31;5071079;28;20176;-54
2023/10/10 00:52:19;;;;;;;12.45;3.60;;;;;;;14.34;60.04;64466.59;5072087;28;20256;-54
2023/10/10 00:54:46;;;;;;;6.60;3.60;;;;;;;14.36;60.35;64465.72;5072118;28;20204;-55
2023/10/10 00:57:16;;;;;;;9.60;4.00;;;;;;;14.30;60.27;64459.66;5072068;28;20215;-55
2023/10/10 00:59:45;;;;;;;10.82;4.32;;;;;;;14.33;59.99;64465.50;5071901;28;20201;-55
2023/10/10 01:02:14;;;;;;;9.13;3.83;;;;;;;14.36;58.97;64468.78;5070649;28;20277;-55
2023/10/10 01:04:56;;;;;;;8.63;3.63;;;;;;;14.35;58.60;64465.16;5071942;28;20270;-54
2023/10/10 01:07:23;;;;;;;9.20;3.78;;;;;;;14.02;60.92;64428.88;5070421;28;20220;-55
2023/10/10 01:09:56;;;;;;;6.95;3.92;;;;;;;14.33;59.63;64462.97;5072056;28;20659;-55
2023/10/10 01:12:24;;;;;;;10.77;3.45;;;;;;;14.26;59.89;64457.78;5072089;28;20379;-54
2023/10/10 01:14:57;;;;;;;11.38;4.13;;;;;;;14.08;61.29;64436.00;5071783;28;20709;-55
2023/10/10 01:17:32;;;;;;;7.28;3.88;;;;;;;14.10;60.51;64440.19;5071740;28;20204;-55
2023/10/10 01:20:33;;;;;;;7.85;3.45;;;;;;;14.17;58.12;64445.34;5071816;28;20223;-55
2023/10/10 01:22:59;;;;;;;9.38;3.72;;;;;;;14.05;59.62;64432.72;5071755;28;20200;-55
2023/10/10 01:31:04;;;;;;;9.02;3.47;;;;;;;14.36;61.72;64466.25;5057941;28;20607;-54
2023/10/10 01:35:59;;;;;;;7.68;3.72;;;;;;;14.40;61.41;64468.13;5072010;28;20201;-55
2023/10/10 01:38:41;;;;;;;8.23;3.05;;;;;;;14.47;60.92;64477.78;5070223;28;20199;-54
2023/10/10 01:41:22;;;;;;;8.90;3.25;;;;;;;14.37;61.81;64469.88;5070244;28;20682;-55
2023/10/10 01:43:53;;;;;;;12.18;4.18;;;;;;;14.43;61.82;64476.47;5070026;28;20193;-54
2023/10/10 01:46:27;;;;;;;7.13;3.25;;;;;;;14.47;61.97;64475.25;5070018;28;20755;-54
2023/10/10 01:48:56;;;;;;;9.48;4.07;;;;;;;14.50;61.81;64483.63;5071310;28;20227;-54
2023/10/10 01:51:28;;;;;;;10.50;3.58;;;;;;;14.29;62.34;64459.13;5071436;28;20208;-55
2023/10/10 01:53:55;;;;;;;13.32;3.75;;;;;;;14.30;61.57;64457.13;5069893;28;20266;-54
2023/10/10 01:56:22;;;;;;;9.00;4.07;;;;;;;14.17;62.89;64445.34;5069778;28;20229;-54
2023/10/10 01:58:53;;;;;;;6.38;3.65;;;;;;;14.26;63.34;64453.25;5071376;28;20279;-54
2023/10/10 02:01:19;;;;;;;4.93;3.05;;;;;;;14.22;62.33;64453.94;5070031;28;20201;-54
2023/10/10 02:03:48;;;;;;;11.75;3.42;;;;;;;14.20;60.80;64448.66;5071078;28;20205;-58
2023/10/10 02:06:24;;;;;;;7.65;3.20;;;;;;;14.14;61.56;64444.59;5071328;28;20716;-56
2023/10/10 02:08:51;;;;;;;10.88;4.28;;;;;;;14.08;60.42;64436.00;5070044;28;20220;-55
2023/10/10 02:11:20;;;;;;;8.75;3.60;;;;;;;13.99;61.67;64426.13;5071349;28;20205;-54
2023/10/10 02:13:47;;;;;;;9.43;3.75;;;;;;;14.01;64.05;64432.84;5070969;28;20196;-55
2023/10/10 02:16:17;;;;;;;6.30;2.63;;;;;;;14.05;63.47;64432.19;5069629;28;20204;-53
2023/10/10 02:18:51;;;;;;;8.38;3.75;;;;;;;13.99;63.23;64425.59;5061007;22;20415;-53
2023/10/10 02:21:31;;;;;;;11.07;3.38;;;;;;;14.10;63.71;64440.19;5052596;28;20196;-53
2023/10/10 02:24:12;;;;;;;8.57;2.72;;;;;;;14.27;63.14;64456.34;5070979;28;20675;-55
2023/10/10 02:26:38;;;;;;;5.63;2.70;;;;;;;14.49;62.97;64480.53;5038226;28;20223;-53
2023/10/10 02:29:17;;;;;;;4.35;2.40;;;;;;;14.77;62.72;64510.75;5052809;28;20358;-54
2023/10/10 02:31:48;;;;;;;7.18;2.45;;;;;;;14.98;63.56;64536.94;5052776;28;20204;-54
2023/10/10 02:34:13;;;;;;;7.35;2.45;;;;;;;15.22;63.62;64559.69;5051561;28;20258;-53
2023/10/10 02:36:41;;;;;;;8.70;2.45;;;;;;;15.45;63.03;64588.09;5070659;28;20201;-55
2023/10/10 02:39:19;;;;;;;4.25;2.10;;;;;;;15.63;62.64;64605.34;5069177;28;20193;-56
2023/10/10 02:41:50;;;;;;;9.00;2.67;;;;;;;15.83;61.61;64626.81;5070753;28;20217;-55
2023/10/10 02:47:19;;;;;;;6.88;2.35;;;;;;;16.06;61.00;64652.09;5046962;28;20228;-52
2023/10/10 02:49:48;;;;;;;9.02;3.08;;;;;;;16.16;60.87;64663.09;5076314;22;20545;-52
2023/10/10 02:52:14;;;;;;;7.80;2.08;;;;;;;16.24;61.32;64671.91;5090679;28;20208;-52
2023/10/10 02:54:53;;;;;;;4.95;2.15;;;;;;;16.35;61.82;64683.47;5072319;28;20200;-52
2023/10/10 02:59:51;;;;;;;9.38;2.22;;;;;;;16.52;63.06;64699.69;5073615;28;20192;-52
2023/10/10 03:02:28;;;;;;;3.45;1.98;;;;;;;16.56;63.19;64707.16;5072366;28;20318;-52
2023/10/10 03:07:30;;;;;;;7.63;2.22;;;;;;;16.68;63.04;64722.38;5090402;28;20208;-51
2023/10/10 03:12:37;;;;;;;7.68;2.45;;;;;;;16.71;63.14;64726.22;5090416;28;20212;-52
2023/10/10 03:20:34;;;;;;;6.20;2.10;;;;;;;16.82;63.84;64734.69;5090254;28;20247;-51
2023/10/10 03:25:48;;;;;;;4.68;2.30;;;;;;;16.65;63.75;64717.06;5090213;28;20265;-51
2023/10/10 03:28:19;;;;;;;2.88;2.30;;;;;;;16.59;64.56;64710.47;5090416;28;20214;-51
2023/10/10 03:31:04;;;;;;;4.05;2.00;;;;;;;16.60;64.90;64711.03;5072086;28;20289;-52
2023/10/10 03:33:43;;;;;;;5.45;2.00;;;;;;;16.63;65.12;64714.88;5090573;28;20204;-51
2023/10/10 05:25:13;;;;;;;10.57;3.60;;;;;;;16.52;74.64;64702.22;5092275;28;20240;-54
2023/10/10 05:27:42;;;;;;;10.77;3.97;;;;;;;16.53;74.83;64701.31;5091759;28;20204;-57
2023/10/10 05:30:22;;;;;;;10.75;3.95;;;;;;;16.51;74.91;64701.66;5091997;28;20177;-54
2023/10/10 05:33:00;;;;;;;9.45;3.22;;;;;;;16.51;74.83;64701.09;5073508;28;20223;-53
2023/10/10 05:35:29;;;;;;;6.30;2.90;;;;;;;16.56;74.66;64709.69;5073546;28;20613;-56
2023/10/10 05:37:55;;;;;;;9.10;3.10;;;;;;;16.51;75.10;64703.66;5091644;28;20227;-53
2023/10/10 05:40:24;;;;;;;10.55;3.35;;;;;;;16.47;75.50;64699.78;5091765;28;20294;-55
2023/10/10 05:42:51;;;;;;;12.60;3.40;;;;;;;16.49;75.78;64699.47;5074248;28;20300;-51
2023/10/10 05:45:18;;;;;;;11.07;3.60;;;;;;;16.52;75.55;64702.75;5090415;28;20204;-51
2023/10/10 05:47:44;;;;;;;8.57;4.20;;;;;;;16.35;75.92;64684.03;5091555;28;20223;-53
2023/10/10 05:50:10;;;;;;;12.10;3.78;;;;;;;16.48;76.14;64700.88;5073328;28;20196;-52
2023/10/10 05:52:43;;;;;;;7.03;3.85;;;;;;;16.50;75.66;64700.03;5091497;28;20281;-52
2023/10/10 05:55:12;;;;;;;7.05;2.92;;;;;;;16.44;75.80;64693.38;5091601;28;20228;-51
2023/10/10 05:57:39;;;;;;;8.43;3.30;;;;;;;16.46;75.42;64693.59;5091362;28;20212;-52
2023/10/10 06:00:10;;;;;;;9.40;3.70;;;;;;;16.41;75.63;64692.63;5091423;28;20719;-57
2023/10/10 06:02:42;;;;;;;6.50;3.45;;;;;;;16.44;75.62;64693.94;5091635;28;20212;-54
2023/10/10 06:05:12;;;;;;;7.22;3.50;;;;;;;16.49;75.50;64698.91;5091550;28;20203;-52
2023/10/10 06:07:43;;;;;;;6.35;2.97;;;;;;;16.58;74.73;64709.34;5091510;28;20263;-51
2023/10/10 06:10:17;;;;;;;6.22;2.88;;;;;;;16.74;74.35;64726.44;5073405;28;20267;-52
2023/10/10 06:12:46;;;;;;;9.77;3.22;;;;;;;16.84;74.14;64740.00;5091005;28;20226;-51
2023/10/10 06:15:16;;;;;;;7.32;3.10;;;;;;;16.84;73.76;64739.44;5091368;28;20208;-53
2023/10/10 06:17:43;;;;;;;11.07;3.50;;;;;;;16.82;73.79;64735.25;5071635;28;20216;-53
2023/10/10 06:20:16;;;;;;;6.10;3.15;;;;;;;16.78;73.64;64733.94;5073709;28;20629;-54
2023/10/10 06:22:45;;;;;;;8.50;2.83;;;;;;;16.79;73.89;64731.94;5091257;28;20589;-55
2023/10/10 06:25:11;;;;;;;7.13;3.53;;;;;;;16.90;73.84;64743.50;5091154;28;20228;-55
2023/10/10 06:27:40;;;;;;;10.25;3.75;;;;;;;16.96;73.42;64750.13;5090973;28;20208;-55
2023/10/10 06:30:16;;;;;;;5.22;3.10;;;;;;;17.01;73.48;64755.63;5090910;28;20215;-55
2023/10/10 06:32:43;;;;;;;10.82;3.50;;;;;;;16.99;73.50;64753.44;5091194;28;20204;-53
2023/10/10 06:37:41;;;;;;;6.57;2.85;;;;;;;16.74;74.21;64724.44;5090800;28;20196;-55
2023/10/10 06:40:08;;;;;;;8.98;3.22;;;;;;;16.74;74.10;64727.00;5073234;28;20208;-53
2023/10/10 06:42:35;;;;;;;7.93;3.28;;;;;;;16.76;74.42;64728.66;5090646;28;20773;-55
2023/10/10 06:45:07;;;;;;;5.97;2.85;;;;;;;16.74;74.43;64729.53;5090742;28;20236;-55
2023/10/10 06:47:44;;;;;;;8.35;3.05;;;;;;;16.82;74.16;64737.78;5090700;28;20207;-53
2023/10/10 06:50:13;;;;;;;10.18;3.13;;;;;;;16.83;74.38;64738.34;5072722;28;20207;-54
2023/10/10 06:52:43;;;;;;;6.05;3.22;;;;;;;16.87;74.09;64740.22;5090654;28;20220;-53
2023/10/10 06:55:22;;;;;;;8.07;3.55;;;;;;;16.99;73.86;64753.44;5090634;28;20219;-54
2023/10/10 06:58:01;;;;;;;7.38;3.38;;;;;;;17.01;73.50;64756.16;5090898;28;20203;-54
2023/10/10 07:00:44;;;;;;;6.90;3.00;;;;;;;17.05;73.48;64760.56;5090587;28;20252;-54
2023/10/10 07:03:18;;;;;;;7.18;3.63;;;;;;;17.11;73.76;64767.19;5090857;28;20204;-54
2023/10/10 07:05:48;;;;;;;5.97;2.97;;;;;;;17.07;73.74;64762.25;5090660;28;20265;-52
2023/10/10 07:08:19;;;;;;;8.18;3.90;;;;;;;16.93;74.82;64749.38;5090586;28;20208;-54
2023/10/10 07:10:46;;;;;;;6.55;2.88;;;;;;;16.88;75.90;64738.75;5056526;28;20273;-57
2023/10/10 07:13:18;;;;;;;5.20;3.17;;;;;;;16.97;75.29;64751.75;5090666;28;20208;-55
2023/10/10 07:15:51;;;;;;;6.60;3.53;;;;;;;16.96;75.55;64750.13;5090139;28;20204;-54
2023/10/10 07:18:24;;;;;;;9.55;3.75;;;;;;;16.96;76.04;64750.13;5090663;28;20794;-59
2023/10/10 07:26:43;;;;;;;8.98;3.15;;;;;;;17.00;76.39;64757.63;5045589;28;20219;-55
2023/10/10 07:32:04;;;;;;;8.98;2.97;;;;;;;17.01;76.28;64758.19;5093999;28;20226;-54
2023/10/10 07:34:41;;;;;;;8.07;3.05;;;;;;;17.08;75.93;64763.88;5094044;28;20188;-54
2023/10/10 07:37:09;;;;;;;8.48;3.30;;;;;;;17.31;74.24;64786.13;5093619;28;20204;-54
2023/10/10 07:39:55;;;;;;;8.07;3.53;;;;;;;17.55;73.24;64813.13;5093740;28;20665;-55
2023/10/10 07:42:27;;;;;;;6.13;3.15;;;;;;;17.95;70.72;64856.13;5075623;28;20678;-54
2023/10/10 07:45:13;;;;;;;7.00;3.40;;;;;;;17.82;70.89;64844.91;5093618;28;20253;-57
2023/10/10 07:50:34;;;;;;;8.30;3.78;;;;;;;17.73;72.74;64832.44;5093731;28;20280;-55
2023/10/10 07:53:05;;;;;;;18.92;4.38;;;;;;;17.72;72.13;64836.41;5075526;28;20216;-54
2023/10/10 07:55:34;;;;;;;11.80;3.58;;;;;;;17.60;73.07;64820.66;5093760;28;20200;-54
2023/10/10 07:58:00;;;;;;;14.27;4.10;;;;;;;17.56;74.01;64816.25;5084341;22;20239;-52
2023/10/10 08:00:35;;;;;;;7.88;3.83;;;;;;;17.49;74.02;64808.53;5073357;28;20298;-54
2023/10/10 08:03:02;;;;;;;9.63;3.95;;;;;;;17.28;74.90;64782.81;5073253;28;20204;-54
2023/10/10 08:05:29;;;;;;;12.27;3.55;;;;;;;17.32;75.63;64789.78;5073023;28;20197;-52
2023/10/10 08:07:55;;;;;;;11.15;4.22;;;;;;;17.55;75.02;64820.78;5072782;28;20292;-51
2023/10/10 08:10:38;;;;;;;11.35;3.25;;;;;;;17.43;74.45;64799.34;5073199;28;20762;-51
2023/10/10 08:13:10;;;;;;;8.63;3.92;;;;;;;17.40;74.83;64799.16;5073264;28;20215;-52
2023/10/10 08:23:31;;;;;;;9.32;3.55;;;;;;;17.32;76.07;64787.22;5072799;28;20193;-52
2023/10/10 08:25:57;;;;;;;14.85;4.53;;;;;;;17.27;76.22;64786.81;5072638;28;20192;-52
2023/10/10 08:28:23;;;;;;;8.90;4.07;;;;;;;17.32;75.95;64790.31;5072566;28;20214;-52
2023/10/10 08:30:50;;;;;;;12.30;4.72;;;;;;;17.33;76.04;64791.41;5072491;28;20654;-52
2023/10/10 08:33:16;;;;;;;9.68;4.68;;;;;;;17.31;76.19;64791.22;5071173;28;20217;-52
2023/10/10 08:35:42;;;;;;;10.45;4.22;;;;;;;17.28;76.58;64783.38;5072324;28;20211;-51
2023/10/10 08:38:19;;;;;;;10.82;4.20;;;;;;;17.37;76.15;64798.38;5071164;28;20605;-52
2023/10/10 08:40:58;;;;;;;10.80;5.25;;;;;;;17.31;76.45;64788.69;5070013;28;20224;-52
2023/10/10 08:43:28;;;;;;;13.98;4.57;;;;;;;17.19;76.42;64773.44;5072598;28;20670;-51
2023/10/10 08:45:56;;;;;;;9.98;4.53;;;;;;;17.06;77.59;64761.13;5072611;28;20737;-52
2023/10/10 08:48:26;;;;;;;12.75;4.97;;;;;;;17.00;77.94;64752.53;5072206;28;20303;-52
2023/10/10 08:51:03;;;;;;;16.60;4.70;;;;;;;17.02;78.22;64756.72;5072511;28;20335;-51
2023/10/10 08:53:30;;;;;;;9.68;4.05;;;;;;;16.93;78.78;64749.38;5071071;28;20679;-52
2023/10/10 08:55:56;;;;;;;10.07;4.57;;;;;;;17.08;78.33;64763.88;5072434;28;20673;-59
2023/10/10 08:58:22;;;;;;;10.77;4.63;;;;;;;17.00;79.08;64755.06;5072249;28;20240;-54
2023/10/10 09:00:49;;;;;;;11.05;4.53;;;;;;;16.96;79.22;64750.66;5072015;28;20678;-52
2023/10/10 09:03:14;;;;;;;8.32;4.80;;;;;;;17.04;79.23;64759.47;5072095;28;20768;-52
2023/10/10 09:05:41;;;;;;;7.95;4.78;;;;;;;17.06;79.17;64761.69;5084006;22;20221;-51
2023/10/10 09:08:16;;;;;;;10.13;4.35;;;;;;;17.17;79.01;64771.25;5072005;28;20240;-53
2023/10/10 09:10:47;;;;;;;6.75;3.70;;;;;;;17.27;79.01;64782.25;5070750;28;20173;-52
2023/10/10 09:13:13;;;;;;;8.05;4.00;;;;;;;17.38;78.37;64796.38;5072162;28;20217;-52
2023/10/10 09:16:01;;;;;;;8.15;3.78;;;;;;;17.41;78.08;64802.25;5072039;28;20736;-52
2023/10/10 09:18:27;;;;;;;6.55;3.70;;;;;;;17.57;77.29;64814.81;5072104;28;20209;-53
2023/10/10 09:21:17;;;;;;;10.88;4.30;;;;;;;17.69;75.58;64833.13;5072098;28;20595;-51
2023/10/10 09:23:52;;;;;;;10.15;3.65;;;;;;;17.79;75.44;64841.59;5070671;28;20211;-52
2023/10/10 09:26:42;;;;;;;7.35;3.35;;;;;;;17.89;74.84;64855.19;5070756;28;20227;-53
2023/10/10 09:29:15;;;;;;;8.98;4.28;;;;;;;17.95;74.10;64859.25;5071436;28;20228;-51
2023/10/10 09:31:45;;;;;;;8.75;3.83;;;;;;;18.03;74.02;64865.50;5071653;28;20269;-53
2023/10/10 09:34:12;;;;;;;10.43;4.40;;;;;;;18.16;72.89;64884.41;5072053;28;20263;-54
2023/10/10 09:36:39;;;;;;;7.43;3.80;;;;;;;18.08;72.74;64870.47;5071838;28;20698;-51
2023/10/10 09:39:09;;;;;;;6.93;3.13;;;;;;;17.96;73.12;64860.34;5071567;28;20239;-51
2023/10/10 09:41:37;;;;;;;7.50;3.95;;;;;;;18.02;73.31;64864.41;5071658;28;20200;-52
2023/10/10 09:55:38;;;;;;;8.77;3.80;;;;;;;20.42;62.79;65127.16;5071274;28;20208;-53
2023/10/10 09:58:01;;;;;;;5.00;3.00;;;;;;;20.33;61.39;65119.78;5071294;28;20608;-54
2023/10/10 10:09:08;;;;;;;10.07;2.85;;;;;;;22.00;53.95;65300.81;5071340;28;20212;-52
2023/10/10 10:11:43;;;;;;;7.85;2.78;;;;;;;20.81;57.64;65170.25;5070775;28;20702;-52
2023/10/10 10:14:37;;;;;;;5.53;3.22;;;;;;;20.83;59.27;65173.03;5071044;28;20222;-52
2023/10/10 10:17:18;;;;;;;7.60;3.28;;;;;;;20.41;60.08;65129.16;5067953;28;20740;-52
2023/10/10 10:19:45;;;;;;;11.15;3.13;;;;;;;20.08;60.70;65093.25;5070813;28;20295;-52
2023/10/10 10:22:17;;;;;;;8.32;3.05;;;;;;;19.68;63.38;65048.50;5070955;28;20262;-53
2023/10/10 10:24:44;;;;;;;9.55;3.17;;;;;;;19.79;62.89;65061.22;5069696;28;20205;-52
2023/10/10 10:27:31;;;;;;;9.27;3.33;;;;;;;19.99;62.79;65083.31;5069585;28;20212;-52
2023/10/10 10:32:58;;;;;;;9.05;2.72;;;;;;;19.41;63.69;65019.25;5071022;28;20212;-55
2023/10/10 10:35:36;;;;;;;6.00;2.83;;;;;;;19.33;64.79;65010.44;5071067;28;20278;-55
2023/10/10 10:38:06;;;;;;;6.35;2.42;;;;;;;19.03;65.88;64977.28;5071088;28;20302;-53
2023/10/10 10:43:05;;;;;;;5.50;2.92;;;;;;;19.25;65.10;65001.56;5071111;28;20274;-56
2023/10/10 10:45:36;;;;;;;4.85;2.60;;;;;;;19.16;65.26;64989.06;5069687;28;20193;-55
2023/10/10 10:48:17;;;;;;;4.50;2.80;;;;;;;19.05;66.09;64976.94;5069395;28;20208;-57
2023/10/10 10:50:42;;;;;;;7.63;3.15;;;;;;;18.81;66.94;64953.00;5070996;28;20180;-54
2023/10/10 10:53:31;;;;;;;5.18;3.10;;;;;;;18.69;67.71;64937.19;5069395;28;20227;-55
2023/10/10 11:01:27;;;;;;;5.18;2.63;;;;;;;18.46;68.82;64917.50;5069643;28;20232;-54
2023/10/10 11:03:54;;;;;;;5.45;2.40;;;;;;;18.39;69.11;64910.31;5069992;28;20270;-55
2023/10/10 11:06:21;;;;;;;5.78;2.38;;;;;;;18.53;69.69;64922.66;5070874;28;20253;-55
2023/10/10 11:11:36;;;;;;;6.18;2.80;;;;;;;18.46;69.32;64914.41;5070574;28;20561;-54
2023/10/10 11:14:19;;;;;;;6.32;2.70;;;;;;;18.39;68.94;64907.75;5070423;28;20205;-63
2023/10/10 11:16:46;;;;;;;7.93;2.67;;;;;;;18.44;69.58;64915.84;5069238;28;20212;-57
2023/10/10 11:21:53;;;;;;;5.25;2.85;;;;;;;18.41;69.15;64906.84;5070211;28;20204;-54
2023/10/10 11:24:29;;;;;;;6.07;2.90;;;;;;;18.43;68.38;64912.19;5070395;28;20200;-54
2023/10/10 11:27:17;;;;;;;8.70;2.30;;;;;;;18.33;68.12;64901.13;5070535;28;20694;-54
2023/10/10 11:29:50;;;;;;;5.53;2.50;;;;;;;18.30;68.71;64897.28;5069913;28;20217;-55
2023/10/10 11:32:25;;;;;;;11.05;3.53;;;;;;;18.37;68.88;64905.00;5070117;28;20213;-54
2023/10/10 11:34:56;;;;;;;5.10;2.72;;;;;;;18.47;67.79;64915.50;5070091;28;20341;-54
2023/10/10 11:37:31;;;;;;;5.22;2.15;;;;;;;18.32;67.33;64896.94;5070101;28;20242;-54
2023/10/10 11:43:05;;;;;;;5.38;2.55;;;;;;;18.50;67.75;64921.38;5070041;28;20207;-52
2023/10/10 11:45:39;;;;;;;7.93;3.20;;;;;;;18.57;67.13;64927.06;5068802;28;20361;-52
2023/10/10 11:48:12;;;;;;;5.18;3.30;;;;;;;18.63;66.74;64933.69;5069910;28;20259;-52
2023/10/10 11:50:47;;;;;;;10.70;3.13;;;;;;;18.65;66.44;64935.34;5068691;28;20251;-51
2023/10/10 11:53:19;;;;;;;7.00;2.97;;;;;;;18.74;66.58;64945.28;5068626;28;20200;-53
2023/10/10 11:55:45;;;;;;;6.45;2.75;;;;;;;18.59;66.38;64929.28;5068736;28;20235;-56
2023/10/10 11:58:16;;;;;;;6.85;3.42;;;;;;;18.59;66.45;64928.72;5069749;28;20197;-53
2023/10/10 12:00:59;;;;;;;9.55;3.45;;;;;;;18.50;66.61;64919.38;5069997;28;20193;-56
2023/10/10 12:06:26;;;;;;;6.22;3.63;;;;;;;18.54;67.06;64925.78;5069745;28;20201;-54
2023/10/10 12:08:53;;;;;;;8.77;3.63;;;;;;;18.67;67.68;64935.56;5069785;28;20303;-54
2023/10/10 12:11:21;;;;;;;4.72;2.80;;;;;;;18.75;68.23;64946.94;5068234;28;20303;-53
2023/10/10 12:13:52;;;;;;;7.30;3.17;;;;;;;18.74;68.98;64945.84;5069449;28;20204;-54
2023/10/10 12:16:23;;;;;;;6.13;2.35;;;;;;;18.63;65.79;64930.59;5069399;28;20204;-53
2023/10/10 12:18:52;;;;;;;8.10;2.78;;;;;;;18.59;68.68;64929.28;5072905;28;20165;-54
2023/10/10 12:21:22;;;;;;;7.80;3.00;;;;;;;18.60;68.42;64927.84;5071429;28;20208;-54
2023/10/10 12:23:49;;;;;;;5.68;2.78;;;;;;;18.57;67.77;64929.06;5071506;28;20231;-52
2023/10/10 12:26:15;;;;;;;8.50;2.90;;;;;;;18.61;68.11;64931.50;5072811;28;20206;-51
2023/10/10 12:28:43;;;;;;;5.25;2.38;;;;;;;18.71;67.39;64942.53;5072813;28;20710;-53
2023/10/10 12:31:15;;;;;;;10.77;2.92;;;;;;;18.65;66.99;64933.34;5071213;28;20295;-52
2023/10/10 12:33:45;;;;;;;6.38;2.90;;;;;;;18.65;68.21;64932.78;5078629;22;20277;-52
2023/10/10 12:36:10;;;;;;;4.78;2.97;;;;;;;18.65;68.11;64935.91;5072633;28;20747;-51
2023/10/10 12:38:38;;;;;;;7.40;3.38;;;;;;;18.62;68.06;64932.03;5072405;28;20197;-52
2023/10/10 12:41:11;;;;;;;6.28;3.03;;;;;;;18.83;70.19;64953.22;5072269;28;20224;-53
2023/10/10 12:43:38;;;;;;;8.82;3.90;;;;;;;18.69;72.39;64937.19;5072470;28;20204;-53
2023/10/10 12:46:06;;;;;;;9.48;3.97;;;;;;;18.72;75.50;64943.06;5070999;28;20355;-53
2023/10/10 12:48:39;;;;;;;7.75;3.85;;;;;;;18.69;76.91;64937.19;5071030;28;20220;-52
2023/10/10 12:51:09;;;;;;;9.73;4.22;;;;;;;18.50;78.35;64916.81;5071116;28;20278;-51
2023/10/10 12:53:39;;;;;;;7.60;4.05;;;;;;;18.58;76.05;64928.19;5072232;28;20215;-54
2023/10/10 12:56:06;;;;;;;4.95;3.15;;;;;;;18.50;77.56;64916.25;5070841;28;20283;-55
2023/10/10 12:58:32;;;;;;;10.35;3.47;;;;;;;18.43;76.60;64912.19;5072210;28;20197;-53
2023/10/10 13:00:59;;;;;;;8.25;4.40;;;;;;;18.55;76.76;64922.31;5072247;28;20209;-52
2023/10/10 13:03:29;;;;;;;8.60;3.83;;;;;;;18.55;75.22;64924.31;5072240;28;20232;-52
2023/10/10 13:06:00;;;;;;;5.00;3.22;;;;;;;18.57;73.48;64926.53;5072149;28;20228;-52
2023/10/10 13:09:05;;;;;;;6.80;3.05;;;;;;;18.54;71.74;64921.22;5070727;28;20220;-52
2023/10/10 13:14:14;;;;;;;8.50;3.03;;;;;;;18.62;71.87;64932.03;5072045;28;20245;-53
2023/10/10 13:19:12;;;;;;;4.32;2.63;;;;;;;18.44;67.38;64913.28;5072039;28;20187;-53
2023/10/10 13:21:39;;;;;;;10.15;2.88;;;;;;;18.50;66.62;64919.38;5072259;28;20577;-52
2023/10/10 13:24:13;;;;;;;10.13;2.65;;;;;;;18.55;65.85;64924.31;5071815;28;20229;-53
2023/10/10 13:26:50;;;;;;;7.43;2.55;;;;;;;18.62;66.14;64932.03;5071584;28;20212;-53
2023/10/10 13:29:16;;;;;;;6.05;2.80;;;;;;;18.83;65.49;64953.22;5071860;28;20244;-53
2023/10/10 13:31:46;;;;;;;5.85;2.85;;;;;;;18.77;65.74;64946.59;5072053;28;20204;-55
2023/10/10 13:34:13;;;;;;;6.50;2.90;;;;;;;18.71;65.26;64942.53;5071917;28;20208;-55
2023/10/10 13:36:39;;;;;;;7.63;3.05;;;;;;;18.70;65.03;64940.88;5071712;28;20274;-55
2023/10/10 13:39:09;;;;;;;6.82;2.70;;;;;;;18.70;65.38;64938.31;5071728;28;20181;-54
2023/10/10 13:41:38;;;;;;;9.80;3.10;;;;;;;18.68;65.00;64938.66;5071693;28;20213;-52
2023/10/10 13:44:04;;;;;;;11.73;3.58;;;;;;;18.66;65.14;64937.00;5071731;28;20226;-52
2023/10/10 13:46:34;;;;;;;7.00;3.00;;;;;;;18.65;65.53;64933.34;5071506;28;20706;-53
2023/10/10 13:49:00;;;;;;;9.05;3.08;;;;;;;18.69;65.13;64937.75;5077521;22;20221;-54
2023/10/10 13:51:29;;;;;;;5.40;3.10;;;;;;;18.69;65.58;64939.75;5071560;28;20299;-52
2023/10/10 13:53:57;;;;;;;7.05;2.65;;;;;;;18.64;65.41;64939.91;5071854;28;20647;-51
2023/10/10 13:56:23;;;;;;;5.43;2.90;;;;;;;18.68;65.54;64936.13;5071542;28;20212;-56
2023/10/10 13:58:57;;;;;;;5.97;3.13;;;;;;;18.65;65.54;64935.91;5078843;22;20698;-55
2023/10/10 14:04:15;;;;;;;8.95;3.17;;;;;;;18.58;66.09;64925.63;5071565;28;20531;-52
2023/10/10 14:06:48;;;;;;;7.30;3.40;;;;;;;18.57;66.44;64923.97;5070209;28;20716;-52
2023/10/10 14:12:20;;;;;;;7.95;3.15;;;;;;;18.41;67.35;64909.97;5057513;28;20292;-55
2023/10/10 14:14:46;;;;;;;10.05;3.50;;;;;;;18.42;67.36;64908.50;5071033;28;20223;-56
2023/10/10 14:17:12;;;;;;;7.00;3.40;;;;;;;18.43;67.64;64912.19;5070905;28;20208;-55
2023/10/10 14:19:38;;;;;;;8.85;3.72;;;;;;;18.41;67.46;64909.41;5070832;28;20276;-54
2023/10/10 14:22:10;;;;;;;11.60;3.05;;;;;;;18.36;67.27;64904.44;5070998;28;20335;-53
2023/10/10 14:24:37;;;;;;;7.13;2.92;;;;;;;18.32;67.43;64900.03;5071190;28;20251;-58
2023/10/10 14:27:03;;;;;;;8.75;2.70;;;;;;;18.21;67.59;64884.81;5070757;28;20323;-53
2023/10/10 14:29:41;;;;;;;6.20;2.30;;;;;;;18.25;67.54;64889.22;5070767;28;20295;-54
2023/10/10 14:32:10;;;;;;;5.35;2.58;;;;;;;18.24;67.86;64888.13;5069770;28;20227;-53
2023/10/10 14:34:38;;;;;;;6.25;2.40;;;;;;;18.27;67.49;64893.97;5071136;28;20208;-54
2023/10/10 14:37:04;;;;;;;5.72;2.67;;;;;;;18.22;67.50;64888.47;5070790;28;20213;-54
2023/10/10 14:39:31;;;;;;;6.50;2.75;;;;;;;18.24;67.35;64891.19;5068474;28;20250;-52
2023/10/10 14:42:01;;;;;;;4.95;2.72;;;;;;;18.24;67.64;64891.19;5069288;28;20232;-54
2023/10/10 14:44:28;;;;;;;8.88;3.15;;;;;;;18.22;67.63;64886.44;5070598;28;20204;-55
2023/10/10 14:46:54;;;;;;;7.82;2.70;;;;;;;18.23;67.99;64889.56;5070394;28;20219;-51
2023/10/10 14:49:28;;;;;;;5.85;2.88;;;;;;;18.21;68.07;64885.34;5070544;28;20243;-52
2023/10/10 14:52:05;;;;;;;7.15;3.10;;;;;;;18.70;75.36;64940.88;5068910;28;20220;-51
2023/10/10 14:54:37;;;;;;;8.55;3.00;;;;;;;18.86;73.18;64958.53;5070711;28;20204;-59
2023/10/10 14:57:04;;;;;;;10.68;2.85;;;;;;;19.00;72.88;64971.97;5069867;28;20200;-52
2023/10/10 14:59:35;;;;;;;5.10;2.92;;;;;;;19.00;71.13;64971.41;5069242;28;20736;-53
2023/10/10 15:02:04;;;;;;;8.30;3.13;;;;;;;18.67;67.28;64937.56;5068925;28;20209;-52
2023/10/10 15:04:30;;;;;;;4.90;2.80;;;;;;;18.49;68.02;64920.81;5070578;28;20211;-52
2023/10/10 15:06:57;;;;;;;7.00;3.05;;;;;;;18.42;68.48;64908.50;5070362;28;20238;-52
2023/10/10 15:09:26;;;;;;;6.07;3.10;;;;;;;18.40;68.90;64911.41;5070275;28;20230;-51
2023/10/10 15:11:59;;;;;;;7.05;2.92;;;;;;;18.36;68.85;64901.34;5070054;28;20203;-54
2023/10/10 15:14:25;;;;;;;7.75;3.08;;;;;;;18.35;69.08;64900.25;5070076;28;20292;-54
2023/10/10 15:16:51;;;;;;;6.80;3.05;;;;;;;18.31;68.98;64896.38;5069672;28;20213;-53
2023/10/10 15:19:17;;;;;;;13.07;2.67;;;;;;;18.22;69.52;64886.44;5069576;28;20553;-53
2023/10/10 15:21:47;;;;;;;7.05;2.95;;;;;;;18.20;69.82;64889.34;5070063;28;20208;-54